Time;durP1;ratioP1;P1;durP2;ratioP2;P2;SDS_P1;SDS_P2;PMS_P1;PMS_P2;Temp;Humidity;BMP_temperature;BMP_pressure;BME280_temperature;BME280_humidity;BME280_pressure;Samples;Min_cycle;Max_cycle;Signal;HPM_P1;HPM_P2
2022/10/03 00:02:26;;;;;;;0.00;0.00;;;9.90;99.90;;;;;;5073407;28;20496;-82
2022/10/03 00:05:07;;;;;;;0.00;0.00;;;10.00;99.90;;;;;;5074528;28;20552;-82
2022/10/03 00:07:49;;;;;;;0.00;0.00;;;9.90;99.90;;;;;;5091155;28;20048;-82
2022/10/03 00:10:21;;;;;;;0.00;0.00;;;9.90;99.90;;;;;;5057596;28;20553;-82
2022/10/03 00:13:27;;;;;;;0.00;0.00;;;9.90;99.90;;;;;;5074538;28;20051;-82
2022/10/03 00:16:05;;;;;;;0.00;0.00;;;9.80;99.90;;;;;;5036571;28;20045;-82
2022/10/03 00:18:59;;;;;;;0.00;0.00;;;9.90;99.90;;;;;;5036525;28;20053;-82
2022/10/03 00:21:36;;;;;;;0.00;0.00;;;9.80;99.90;;;;;;5052632;28;20612;-82
2022/10/03 00:24:14;;;;;;;1.08;0.43;;;9.80;99.90;;;;;;5036252;28;20145;-82
2022/10/03 00:26:52;;;;;;;0.88;0.70;;;9.80;99.90;;;;;;5036355;28;20052;-82
2022/10/03 00:29:36;;;;;;;0.00;0.00;;;9.80;99.90;;;;;;5036127;28;20045;-82
2022/10/03 00:32:22;;;;;;;0.00;0.00;;;9.70;99.90;;;;;;5036373;28;20049;-81
2022/10/03 00:35:04;;;;;;;0.00;0.00;;;9.70;99.90;;;;;;5019561;28;20439;-82
2022/10/03 00:37:52;;;;;;;0.03;0.00;;;9.70;99.90;;;;;;5036373;28;20532;-82
2022/10/03 00:40:50;;;;;;;0.00;0.00;;;9.70;99.90;;;;;;5019640;28;20057;-82
2022/10/03 00:43:34;;;;;;;0.00;0.00;;;9.70;99.90;;;;;;5036583;28;20106;-82
2022/10/03 00:46:18;;;;;;;0.10;0.08;;;9.70;99.90;;;;;;5027344;28;20449;-82
2022/10/03 00:49:09;;;;;;;3.25;0.55;;;9.70;99.90;;;;;;5073113;28;20040;-82
2022/10/03 00:52:12;;;;;;;0.00;0.00;;;9.70;99.90;;;;;;5073055;28;20055;-82
2022/10/03 00:54:47;;;;;;;0.00;0.00;;;9.70;99.90;;;;;;5057122;28;20044;-82
2022/10/03 00:57:40;;;;;;;0.00;0.00;;;9.60;99.90;;;;;;5073459;28;20381;-82
2022/10/03 01:00:18;;;;;;;0.00;0.00;;;9.60;99.90;;;;;;5073708;28;20045;-82
2022/10/03 01:02:50;;;;;;;0.00;0.00;;;9.60;99.90;;;;;;5057020;28;20101;-82
2022/10/03 01:05:55;;;;;;;1.27;0.10;;;9.60;99.90;;;;;;5056559;28;20048;-82
2022/10/03 01:08:37;;;;;;;0.00;0.00;;;9.60;99.90;;;;;;5072762;28;20098;-82
2022/10/03 01:11:27;;;;;;;0.52;0.43;;;9.60;99.90;;;;;;5056767;28;20056;-82
2022/10/03 01:14:04;;;;;;;0.00;0.00;;;9.60;99.90;;;;;;5056519;28;20044;-82
2022/10/03 01:16:36;;;;;;;0.00;0.00;;;9.50;99.90;;;;;;5073708;28;20052;-81
2022/10/03 01:19:02;;;;;;;0.00;0.00;;;9.50;99.90;;;;;;5056359;28;20095;-82
2022/10/03 01:21:27;;;;;;;0.00;0.00;;;9.50;99.90;;;;;;5073062;28;20080;-81
2022/10/03 01:24:21;;;;;;;0.00;0.00;;;9.50;99.90;;;;;;5056250;28;20574;-81
2022/10/03 01:26:58;;;;;;;0.00;0.00;;;9.50;99.90;;;;;;5056711;28;20140;-81
2022/10/03 01:33:02;;;;;;;0.17;0.13;;;9.50;99.90;;;;;;5073200;28;20067;-81
2022/10/03 01:35:39;;;;;;;0.00;0.00;;;9.50;99.90;;;;;;5018959;28;20068;-82
2022/10/03 01:38:26;;;;;;;0.00;0.00;;;9.40;99.90;;;;;;5035392;28;20045;-82
2022/10/03 01:40:57;;;;;;;0.00;0.00;;;9.40;99.90;;;;;;5035182;28;20060;-82
2022/10/03 01:43:35;;;;;;;0.00;0.00;;;9.40;99.90;;;;;;5035003;28;20049;-82
2022/10/03 01:46:15;;;;;;;0.10;0.10;;;9.40;99.90;;;;;;5018818;28;20103;-81
2022/10/03 01:49:06;;;;;;;0.00;0.00;;;9.40;99.90;;;;;;5018859;28;20052;-82
2022/10/03 01:52:05;;;;;;;0.00;0.00;;;9.40;99.90;;;;;;5018910;28;20080;-81
2022/10/03 01:54:54;;;;;;;0.00;0.00;;;9.40;99.90;;;;;;5019103;28;20107;-81
2022/10/03 01:57:41;;;;;;;0.00;0.00;;;9.40;99.90;;;;;;5035276;28;20056;-81
2022/10/03 02:00:19;;;;;;;0.00;0.00;;;9.40;99.90;;;;;;5018851;28;20061;-82
2022/10/03 02:02:55;;;;;;;0.00;0.00;;;9.30;99.90;;;;;;5035144;28;20053;-82
2022/10/03 02:05:41;;;;;;;0.00;0.00;;;9.30;99.90;;;;;;5022239;28;20057;-82
2022/10/03 02:08:15;;;;;;;2.78;0.60;;;9.30;99.90;;;;;;5038692;28;20136;-81
2022/10/03 02:10:54;;;;;;;0.00;0.00;;;9.30;99.90;;;;;;5021657;28;20060;-82
2022/10/03 02:13:44;;;;;;;0.00;0.00;;;9.30;99.90;;;;;;5059733;28;20052;-82
2022/10/03 02:16:41;;;;;;;0.00;0.00;;;9.30;99.90;;;;;;5059051;28;20400;-82
2022/10/03 02:19:28;;;;;;;0.00;0.00;;;9.30;99.90;;;;;;5057802;28;20151;-82
2022/10/03 02:21:57;;;;;;;0.10;0.10;;;9.20;99.90;;;;;;5059725;28;20044;-82
2022/10/03 02:25:00;;;;;;;0.00;0.00;;;9.20;99.90;;;;;;5059545;28;20045;-82
2022/10/03 02:27:25;;;;;;;0.00;0.00;;;9.20;99.90;;;;;;5059499;28;20044;-82
2022/10/03 02:30:27;;;;;;;0.00;0.00;;;9.20;99.90;;;;;;5059145;28;20102;-82
2022/10/03 02:33:08;;;;;;;0.00;0.00;;;9.20;99.90;;;;;;5075979;28;20040;-82
2022/10/03 02:35:56;;;;;;;0.00;0.00;;;9.20;99.90;;;;;;5075793;28;20384;-82
2022/10/03 02:38:52;;;;;;;0.00;0.00;;;9.20;99.90;;;;;;5092936;28;20479;-81
2022/10/03 02:41:31;;;;;;;0.00;0.00;;;9.20;99.90;;;;;;5059011;28;20059;-81
2022/10/03 02:44:25;;;;;;;0.00;0.00;;;9.20;99.90;;;;;;5059709;28;20049;-82
2022/10/03 02:47:15;;;;;;;0.00;0.00;;;9.20;99.90;;;;;;5059029;28;20101;-81
2022/10/03 02:50:12;;;;;;;0.00;0.00;;;9.20;99.90;;;;;;5059220;28;20064;-82
2022/10/03 02:53:06;;;;;;;0.00;0.00;;;9.20;99.90;;;;;;5059450;28;20056;-82
2022/10/03 02:56:13;;;;;;;0.00;0.00;;;9.10;99.90;;;;;;5075414;28;20072;-81
2022/10/03 02:59:17;;;;;;;0.00;0.00;;;9.10;99.90;;;;;;5058907;28;20119;-81
2022/10/03 03:01:50;;;;;;;0.00;0.00;;;9.10;99.90;;;;;;5059154;28;20041;-81
2022/10/03 03:04:55;;;;;;;0.00;0.00;;;9.00;99.90;;;;;;5092292;28;20058;-81
2022/10/03 03:07:48;;;;;;;0.00;0.00;;;9.10;99.90;;;;;;5037641;28;20060;-81
2022/10/03 03:10:32;;;;;;;0.00;0.00;;;9.00;99.90;;;;;;5005934;28;20055;-81
2022/10/03 03:13:20;;;;;;;0.00;0.00;;;9.00;99.90;;;;;;5001816;28;20049;-81
2022/10/03 03:16:19;;;;;;;0.00;0.00;;;9.00;99.90;;;;;;5000827;28;20179;-82
2022/10/03 03:19:13;;;;;;;0.00;0.00;;;9.00;99.90;;;;;;5001492;28;20037;-82
2022/10/03 03:22:15;;;;;;;0.00;0.00;;;9.00;99.90;;;;;;5018207;28;20480;-82
2022/10/03 03:25:03;;;;;;;0.10;0.10;;;8.90;99.90;;;;;;5001095;28;20068;-82
2022/10/03 03:27:46;;;;;;;0.00;0.00;;;9.00;99.90;;;;;;5001917;28;20467;-82
2022/10/03 03:30:18;;;;;;;0.00;0.00;;;9.00;99.90;;;;;;5017629;28;20464;-81
2022/10/03 03:33:06;;;;;;;0.00;0.00;;;9.00;99.90;;;;;;5017487;28;20139;-81
2022/10/03 03:36:09;;;;;;;0.52;0.52;;;9.00;99.90;;;;;;5001255;28;20042;-81
2022/10/03 03:38:40;;;;;;;0.00;0.00;;;9.00;99.90;;;;;;5017475;28;20409;-82
2022/10/03 03:41:44;;;;;;;0.00;0.00;;;9.00;99.90;;;;;;5000885;28;20051;-81
2022/10/03 03:44:48;;;;;;;0.00;0.00;;;9.00;99.90;;;;;;5038441;28;20084;-81
2022/10/03 03:47:42;;;;;;;0.00;0.00;;;9.00;99.90;;;;;;5038935;28;20053;-82
2022/10/03 03:50:42;;;;;;;0.00;0.00;;;9.00;99.90;;;;;;5055152;28;20057;-82
2022/10/03 03:53:32;;;;;;;0.00;0.00;;;9.00;99.90;;;;;;5055224;28;20056;-81
2022/10/03 03:56:07;;;;;;;0.00;0.00;;;9.00;99.90;;;;;;5038313;28;20393;-81
2022/10/03 03:58:35;;;;;;;;;;;9.00;99.90;;;;;;5038237;28;20041;-81
2022/10/03 04:01:17;;;;;;;0.00;0.00;;;9.00;99.90;;;;;;5038063;28;19932;-81
2022/10/03 04:04:17;;;;;;;0.00;0.00;;;9.00;99.90;;;;;;5055125;28;20080;-81
2022/10/03 04:07:07;;;;;;;0.00;0.00;;;9.00;99.90;;;;;;5038576;28;20047;-81
2022/10/03 04:10:05;;;;;;;0.00;0.00;;;8.90;99.90;;;;;;5037725;28;20481;-82
2022/10/03 04:12:44;;;;;;;0.15;0.10;;;8.90;99.90;;;;;;5037379;28;20045;-81
2022/10/03 04:15:34;;;;;;;0.00;0.00;;;8.90;99.90;;;;;;5037443;28;20059;-82
2022/10/03 04:21:16;;;;;;;0.00;0.00;;;8.80;99.90;;;;;;5053523;28;20052;-81
2022/10/03 04:24:10;;;;;;;0.00;0.00;;;8.70;99.90;;;;;;5038188;28;20088;-81
2022/10/03 04:27:13;;;;;;;0.00;0.00;;;8.70;99.90;;;;;;5053685;28;20049;-81
2022/10/03 04:29:50;;;;;;;0.00;0.00;;;8.70;99.90;;;;;;5053549;28;20049;-82
2022/10/03 04:32:49;;;;;;;0.00;0.00;;;8.70;99.90;;;;;;5053531;28;20169;-81
2022/10/03 04:35:40;;;;;;;0.00;0.00;;;8.80;99.90;;;;;;5037118;28;20079;-81
2022/10/03 04:38:31;;;;;;;0.00;0.00;;;8.80;99.90;;;;;;5053561;28;20045;-81
2022/10/03 04:41:08;;;;;;;0.00;0.00;;;8.70;99.90;;;;;;5054175;28;20045;-81
2022/10/03 04:43:48;;;;;;;0.00;0.00;;;8.70;99.90;;;;;;5036704;28;20103;-81
2022/10/03 04:46:35;;;;;;;0.00;0.00;;;8.70;99.90;;;;;;5037105;28;20049;-81
2022/10/03 04:49:13;;;;;;;0.00;0.00;;;8.70;99.90;;;;;;5036722;28;20135;-81
2022/10/03 04:52:18;;;;;;;0.00;0.00;;;8.70;99.90;;;;;;5053068;28;20048;-81
2022/10/03 04:55:16;;;;;;;0.85;0.85;;;8.70;99.90;;;;;;4996286;28;20509;-81
2022/10/03 04:57:46;;;;;;;0.00;0.00;;;8.70;99.90;;;;;;4996530;28;20061;-81
2022/10/03 05:00:30;;;;;;;0.00;0.00;;;8.70;99.90;;;;;;4981194;28;20041;-82
2022/10/03 05:03:44;;;;;;;0.00;0.00;;;8.70;99.90;;;;;;4980365;28;20410;-81
2022/10/03 05:06:40;;;;;;;0.00;0.00;;;8.70;99.90;;;;;;4977076;28;20137;-81
2022/10/03 05:09:22;;;;;;;0.00;0.00;;;8.70;99.90;;;;;;4992878;28;20046;-82
2022/10/03 05:11:58;;;;;;;0.00;0.00;;;8.60;99.90;;;;;;4976643;28;20054;-82
2022/10/03 05:14:30;;;;;;;0.00;0.00;;;8.60;99.90;;;;;;4976467;28;20056;-82
2022/10/03 05:17:23;;;;;;;0.00;0.00;;;8.60;99.90;;;;;;4976726;28;20058;-82
2022/10/03 05:20:20;;;;;;;0.00;0.00;;;8.70;99.90;;;;;;4976779;28;20094;-82
2022/10/03 05:22:57;;;;;;;0.00;0.00;;;8.60;99.90;;;;;;4976418;28;20557;-82
2022/10/03 05:26:01;;;;;;;0.00;0.00;;;8.60;99.90;;;;;;4976323;28;20087;-82
2022/10/03 05:29:17;;;;;;;0.00;0.00;;;8.60;99.90;;;;;;4969729;28;20487;-82
2022/10/03 05:32:04;;;;;;;0.00;0.00;;;8.60;99.90;;;;;;4897038;29;20171;-82
2022/10/03 05:35:05;;;;;;;0.00;0.00;;;8.60;99.90;;;;;;4897024;29;20092;-82
2022/10/03 05:37:57;;;;;;;0.00;0.00;;;8.60;99.90;;;;;;4896316;29;20084;-82
2022/10/03 05:40:33;;;;;;;0.00;0.00;;;8.60;99.90;;;;;;4919625;29;20138;-81
2022/10/03 05:43:35;;;;;;;0.00;0.00;;;8.50;99.90;;;;;;4919071;29;20052;-81
2022/10/03 05:46:18;;;;;;;0.00;0.00;;;8.60;99.90;;;;;;4903642;29;20056;-82
2022/10/03 05:49:15;;;;;;;0.00;0.00;;;8.60;99.90;;;;;;4902954;29;20079;-82
2022/10/03 05:52:02;;;;;;;0.00;0.00;;;8.60;99.90;;;;;;4903413;29;20071;-82
2022/10/03 05:54:55;;;;;;;0.00;0.00;;;8.60;99.90;;;;;;4902638;29;20152;-82
2022/10/03 05:57:38;;;;;;;0.00;0.00;;;8.60;99.90;;;;;;4903633;29;20051;-82
2022/10/03 06:00:26;;;;;;;0.00;0.00;;;8.60;99.90;;;;;;4919300;29;20056;-82
2022/10/03 06:02:54;;;;;;;0.85;0.20;;;8.60;99.90;;;;;;4903732;28;20151;-82
2022/10/03 06:05:29;;;;;;;0.00;0.00;;;8.70;99.90;;;;;;4979649;28;20065;-82
2022/10/03 06:08:13;;;;;;;0.00;0.00;;;8.70;99.90;;;;;;4987689;28;20076;-82
2022/10/03 06:10:49;;;;;;;0.00;0.00;;;8.70;99.90;;;;;;4985378;28;20076;-83
2022/10/03 06:13:19;;;;;;;0.00;0.00;;;8.70;99.90;;;;;;5037438;28;20121;-83
2022/10/03 06:15:53;;;;;;;0.00;0.00;;;8.80;99.90;;;;;;5037242;28;20049;-82
2022/10/03 06:18:54;;;;;;;0.00;0.00;;;8.80;99.90;;;;;;5037714;28;20103;-82
2022/10/03 06:21:51;;;;;;;0.00;0.00;;;8.90;99.90;;;;;;5072379;28;20083;-82
2022/10/03 06:24:40;;;;;;;0.00;0.00;;;8.90;99.90;;;;;;5054175;28;20146;-83
2022/10/03 06:27:17;;;;;;;0.00;0.00;;;8.90;99.90;;;;;;5056584;28;20036;-82
2022/10/03 06:30:18;;;;;;;0.00;0.00;;;8.90;99.90;;;;;;5037606;28;20114;-82
2022/10/03 06:33:05;;;;;;;0.00;0.00;;;8.90;99.90;;;;;;5055399;28;20049;-82
2022/10/03 06:35:36;;;;;;;0.00;0.00;;;9.00;99.90;;;;;;5056193;28;20056;-82
2022/10/03 06:38:28;;;;;;;0.00;0.00;;;9.00;99.90;;;;;;5055355;28;20508;-82
2022/10/03 06:41:06;;;;;;;0.00;0.00;;;9.00;99.90;;;;;;5055543;28;20044;-83
2022/10/03 06:43:55;;;;;;;0.00;0.00;;;9.10;99.90;;;;;;5054241;28;20462;-83
2022/10/03 06:47:01;;;;;;;0.00;0.00;;;9.10;99.90;;;;;;5055674;28;20178;-82
2022/10/03 06:49:55;;;;;;;0.00;0.00;;;9.10;99.90;;;;;;5054484;28;20139;-83
2022/10/03 06:52:48;;;;;;;0.00;0.00;;;9.20;99.90;;;;;;5038558;28;20198;-82
2022/10/03 06:55:19;;;;;;;0.00;0.00;;;9.30;99.90;;;;;;5038150;28;20087;-83
2022/10/03 06:58:03;;;;;;;0.00;0.00;;;9.40;99.90;;;;;;5051816;28;20139;-84
2022/10/03 07:01:07;;;;;;;0.00;0.00;;;9.40;99.90;;;;;;5053453;28;20489;-83
2022/10/03 07:03:58;;;;;;;0.00;0.00;;;9.60;99.90;;;;;;5071371;28;20419;-83
2022/10/03 07:07:03;;;;;;;0.00;0.00;;;9.80;99.90;;;;;;5054663;28;20052;-83
2022/10/03 07:10:00;;;;;;;0.00;0.00;;;9.90;99.90;;;;;;5000016;28;20096;-82
2022/10/03 07:12:52;;;;;;;0.00;0.00;;;10.00;99.90;;;;;;5028032;28;20059;-82
2022/10/03 07:15:40;;;;;;;0.00;0.00;;;10.10;99.90;;;;;;5036769;28;20524;-82
2022/10/03 07:18:40;;;;;;;0.38;0.13;;;10.20;99.90;;;;;;5037274;28;20107;-82
2022/10/03 07:21:32;;;;;;;0.00;0.00;;;10.20;99.90;;;;;;5036920;28;20057;-82
2022/10/03 07:24:33;;;;;;;0.00;0.00;;;10.30;99.90;;;;;;4978267;28;20058;-82
2022/10/03 07:27:39;;;;;;;0.00;0.00;;;10.40;99.90;;;;;;4977910;28;20145;-82
2022/10/03 07:30:25;;;;;;;0.00;0.00;;;10.40;99.90;;;;;;4920427;29;20048;-82
2022/10/03 07:33:25;;;;;;;0.00;0.00;;;10.50;99.90;;;;;;4920487;29;20072;-82
2022/10/03 07:39:21;;;;;;;0.00;0.00;;;10.70;99.90;;;;;;4920669;29;20103;-82
2022/10/03 07:42:20;;;;;;;0.00;0.00;;;10.80;99.90;;;;;;4936641;29;20052;-82
2022/10/03 07:45:00;;;;;;;0.00;0.00;;;10.80;99.90;;;;;;4920556;29;20052;-83
2022/10/03 07:47:51;;;;;;;0.00;0.00;;;10.80;99.90;;;;;;4920585;29;20409;-83
2022/10/03 07:51:01;;;;;;;0.00;0.00;;;10.90;99.90;;;;;;4920872;29;20069;-83
2022/10/03 07:54:00;;;;;;;0.00;0.00;;;10.90;99.90;;;;;;4920482;29;20106;-83
2022/10/03 07:57:03;;;;;;;0.70;0.20;;;11.00;99.90;;;;;;4920088;29;20051;-83
2022/10/03 08:00:03;;;;;;;0.00;0.00;;;11.10;99.90;;;;;;4929132;29;20044;-83
2022/10/03 08:02:57;;;;;;;0.00;0.00;;;11.30;99.90;;;;;;4946314;29;20114;-83
2022/10/03 08:05:38;;;;;;;0.00;0.00;;;11.30;99.90;;;;;;5051006;28;20141;-83
2022/10/03 08:08:08;;;;;;;0.00;0.00;;;11.40;99.90;;;;;;5050511;28;20076;-83
2022/10/03 08:11:12;;;;;;;0.00;0.00;;;11.40;99.90;;;;;;5050612;28;20123;-83
2022/10/03 08:14:10;;;;;;;0.00;0.00;;;11.60;99.90;;;;;;5033925;28;20080;-83
2022/10/03 08:16:56;;;;;;;0.00;0.00;;;11.70;99.90;;;;;;5050679;28;20120;-83
2022/10/03 08:19:48;;;;;;;0.00;0.00;;;11.90;99.90;;;;;;5033139;28;20053;-83
2022/10/03 08:22:30;;;;;;;0.00;0.00;;;11.90;99.90;;;;;;4996405;28;20160;-83
2022/10/03 08:25:11;;;;;;;0.00;0.00;;;12.10;99.90;;;;;;4996530;28;20112;-83
2022/10/03 08:28:02;;;;;;;0.05;0.05;;;12.20;99.90;;;;;;4996566;28;20140;-83
2022/10/03 08:30:52;;;;;;;0.22;0.22;;;12.30;99.90;;;;;;4996586;28;20144;-83
2022/10/03 08:33:38;;;;;;;0.60;0.55;;;12.60;99.90;;;;;;4996327;28;20164;-84
2022/10/03 08:36:03;;;;;;;0.00;0.00;;;12.80;99.90;;;;;;4979620;28;20089;-83
2022/10/03 08:38:35;;;;;;;0.00;0.00;;;12.90;99.90;;;;;;4996224;28;20624;-84
2022/10/03 08:41:39;;;;;;;0.10;0.00;;;13.10;99.90;;;;;;4996271;28;20066;-83
2022/10/03 08:44:34;;;;;;;0.00;0.00;;;13.40;99.90;;;;;;4980103;28;20050;-84
2022/10/03 08:47:06;;;;;;;0.00;0.00;;;13.70;99.90;;;;;;4995741;28;20179;-83
2022/10/03 08:49:43;;;;;;;0.00;0.00;;;14.00;99.90;;;;;;4996182;28;20056;-84
2022/10/03 08:52:39;;;;;;;0.00;0.00;;;14.20;99.90;;;;;;4996213;28;20600;-84
2022/10/03 08:55:39;;;;;;;0.00;0.00;;;14.40;99.90;;;;;;4996005;28;20057;-84
2022/10/03 08:58:59;;;;;;;0.00;0.00;;;14.60;99.90;;;;;;4996560;28;20050;-83
2022/10/03 09:01:36;;;;;;;0.00;0.00;;;14.90;99.90;;;;;;4996310;28;20049;-84
2022/10/03 09:04:11;;;;;;;0.00;0.00;;;15.10;99.90;;;;;;4995868;28;20419;-83
2022/10/03 09:07:06;;;;;;;0.00;0.00;;;15.20;99.90;;;;;;4996184;28;20062;-83
2022/10/03 09:09:59;;;;;;;0.32;0.20;;;15.30;99.90;;;;;;4996624;28;20054;-84
2022/10/03 09:12:45;;;;;;;0.00;0.00;;;15.40;99.90;;;;;;4995931;28;20508;-83
2022/10/03 09:15:26;;;;;;;0.00;0.00;;;15.40;99.90;;;;;;4995458;28;20160;-84
2022/10/03 09:18:11;;;;;;;0.98;0.35;;;15.50;99.90;;;;;;4996733;28;20053;-84
2022/10/03 09:20:39;;;;;;;0.00;0.00;;;15.70;99.90;;;;;;4996347;28;20444;-84
2022/10/03 09:23:31;;;;;;;0.85;0.45;;;15.80;99.90;;;;;;4996234;28;20096;-84
2022/10/03 09:26:12;;;;;;;0.00;0.00;;;16.00;99.90;;;;;;4976880;28;20057;-84
2022/10/03 09:28:50;;;;;;;0.00;0.00;;;16.10;99.90;;;;;;4996296;28;20073;-84
2022/10/03 09:31:31;;;;;;;2.40;0.30;;;16.10;99.90;;;;;;5002383;28;20060;-85
2022/10/03 09:34:29;;;;;;;0.00;0.00;;;16.20;99.90;;;;;;5033194;28;20398;-84
2022/10/03 09:37:16;;;;;;;0.00;0.00;;;16.30;99.90;;;;;;4996334;28;20054;-84
2022/10/03 09:40:12;;;;;;;0.00;0.00;;;16.20;99.90;;;;;;4996401;28;20189;-85
2022/10/03 09:43:05;;;;;;;0.00;0.00;;;16.30;99.90;;;;;;4995592;28;20062;-84
2022/10/03 09:45:40;;;;;;;0.00;0.00;;;16.40;99.90;;;;;;4979634;28;20131;-85
2022/10/03 09:48:31;;;;;;;0.10;0.03;;;16.50;99.90;;;;;;4995740;28;20045;-84
2022/10/03 09:51:08;;;;;;;0.00;0.00;;;16.60;99.90;;;;;;4995451;28;20136;-84
2022/10/03 09:54:11;;;;;;;0.00;0.00;;;16.60;99.90;;;;;;4995998;28;20176;-84
2022/10/03 09:57:14;;;;;;;0.30;0.10;;;16.70;99.90;;;;;;4995528;28;20089;-84
2022/10/03 10:00:04;;;;;;;0.00;0.00;;;16.80;99.90;;;;;;4995797;28;20057;-84
2022/10/03 10:02:59;;;;;;;0.00;0.00;;;16.90;99.90;;;;;;4996066;28;20085;-85
2022/10/03 10:05:51;;;;;;;;;;;17.00;99.90;;;;;;4996340;28;20453;-84
2022/10/03 10:08:48;;;;;;;0.00;0.00;;;17.30;99.90;;;;;;4995192;28;20007;-84
2022/10/03 10:11:32;;;;;;;0.00;0.00;;;17.50;99.90;;;;;;4996015;28;20054;-84
2022/10/03 10:13:58;;;;;;;0.23;0.07;;;17.40;99.90;;;;;;5023794;28;20148;-84
2022/10/03 10:17:01;;;;;;;0.88;0.43;;;17.50;99.90;;;;;;5049261;28;20152;-84
2022/10/03 10:20:00;;;;;;;0.00;0.00;;;17.50;99.90;;;;;;5049343;28;20441;-84
2022/10/03 10:22:50;;;;;;;0.00;0.00;;;17.70;99.90;;;;;;5032560;28;20064;-84
2022/10/03 10:25:37;;;;;;;0.00;0.00;;;17.70;99.90;;;;;;5051275;28;20085;-84
2022/10/03 10:28:21;;;;;;;1.35;0.45;;;17.80;99.90;;;;;;5036397;28;20045;-84
2022/10/03 10:31:21;;;;;;;0.70;0.25;;;17.80;99.90;;;;;;5053458;28;20049;-85
2022/10/03 10:34:14;;;;;;;0.00;0.00;;;17.80;99.90;;;;;;5053017;28;20049;-84
2022/10/03 10:36:52;;;;;;;0.00;0.00;;;17.90;99.90;;;;;;5035999;28;20394;-84
2022/10/03 10:39:43;;;;;;;0.00;0.00;;;18.00;99.90;;;;;;5052987;28;20061;-84
2022/10/03 10:42:37;;;;;;;0.00;0.00;;;18.10;99.90;;;;;;5052632;28;20140;-85
2022/10/03 10:45:08;;;;;;;0.10;0.10;;;18.10;99.90;;;;;;5036167;28;20088;-85
2022/10/03 10:48:04;;;;;;;0.20;0.20;;;18.30;99.90;;;;;;5037026;28;20045;-84
2022/10/03 10:50:58;;;;;;;5.22;0.63;;;18.50;99.90;;;;;;5052558;28;20057;-85
2022/10/03 10:54:01;;;;;;;0.00;0.00;;;18.60;99.90;;;;;;5072268;28;20048;-85
2022/10/03 10:57:04;;;;;;;0.00;0.00;;;18.60;99.90;;;;;;5055610;28;20053;-84
2022/10/03 11:00:03;;;;;;;0.00;0.00;;;18.60;99.90;;;;;;5055237;28;20049;-85
2022/10/03 11:02:38;;;;;;;0.52;0.10;;;18.50;99.90;;;;;;5055308;28;20045;-84
2022/10/03 11:05:12;;;;;;;;;;;18.30;99.90;;;;;;5055513;28;20041;-85
2022/10/03 11:08:32;;;;;;;0.00;0.00;;;18.50;99.90;;;;;;5054295;28;19920;-85
2022/10/03 11:11:24;;;;;;;0.08;0.08;;;18.50;99.90;;;;;;5074047;28;20040;-85
2022/10/03 11:14:01;;;;;;;0.00;0.00;;;18.70;99.90;;;;;;5056823;28;20373;-85
2022/10/03 11:16:48;;;;;;;0.00;0.00;;;18.80;99.90;;;;;;5057197;28;20048;-84
2022/10/03 11:19:51;;;;;;;0.00;0.00;;;18.90;99.90;;;;;;5057228;28;20048;-83
2022/10/03 11:22:44;;;;;;;0.20;0.20;;;19.00;99.90;;;;;;5057599;28;20061;-84
2022/10/03 11:25:49;;;;;;;0.00;0.00;;;19.20;99.90;;;;;;5057532;28;20048;-84
2022/10/03 11:28:45;;;;;;;0.00;0.00;;;19.20;99.90;;;;;;5057410;28;20396;-84
2022/10/03 11:31:44;;;;;;;0.00;0.00;;;18.90;99.90;;;;;;5057351;28;20083;-84
2022/10/03 11:34:21;;;;;;;0.22;0.20;;;18.80;99.90;;;;;;5057933;28;20049;-84
2022/10/03 11:37:05;;;;;;;1.25;0.45;;;18.60;99.90;;;;;;5056873;28;20572;-84
2022/10/03 11:39:40;;;;;;;0.00;0.00;;;18.60;99.90;;;;;;5057294;28;20181;-84
2022/10/03 11:42:44;;;;;;;0.60;0.00;;;18.50;99.90;;;;;;5057289;28;20048;-84
2022/10/03 11:45:36;;;;;;;0.00;0.00;;;18.40;99.90;;;;;;5054751;28;20049;-84
2022/10/03 11:48:23;;;;;;;0.00;0.00;;;18.40;99.90;;;;;;5057258;28;20049;-84
2022/10/03 11:51:17;;;;;;;0.00;0.00;;;18.40;99.90;;;;;;5040922;28;20143;-84
2022/10/03 11:54:11;;;;;;;0.10;0.10;;;18.30;99.90;;;;;;5072525;28;20056;-85
2022/10/03 11:56:49;;;;;;;0.00;0.00;;;18.30;99.90;;;;;;5040256;28;20145;-83
2022/10/03 11:59:27;;;;;;;0.00;0.00;;;18.10;99.90;;;;;;5056760;28;20067;-83
2022/10/03 12:01:57;;;;;;;0.00;0.00;;;17.90;99.90;;;;;;5056696;28;20048;-83
2022/10/03 12:04:38;;;;;;;0.00;0.00;;;17.80;99.90;;;;;;5056554;28;20053;-83
2022/10/03 12:10:22;;;;;;;0.13;0.10;;;17.90;99.90;;;;;;5056419;28;20095;-83
2022/10/03 12:12:53;;;;;;;2.63;0.70;;;17.90;99.90;;;;;;5057074;28;20056;-83
2022/10/03 12:15:55;;;;;;;0.00;0.00;;;18.20;99.90;;;;;;5056532;28;20453;-83
2022/10/03 12:18:41;;;;;;;0.00;0.00;;;18.50;99.90;;;;;;5056250;28;20052;-83
2022/10/03 12:21:14;;;;;;;4.65;0.38;;;19.00;99.90;;;;;;5056286;28;20052;-83
2022/10/03 12:44:44;;;;;;;0.00;0.00;;;19.30;99.90;;;;;;5091242;27;20386;-83
2022/10/03 12:47:29;;;;;;;0.00;0.00;;;19.20;99.90;;;;;;5088892;28;20048;-84
2022/10/03 12:50:12;;;;;;;0.03;0.03;;;19.20;99.90;;;;;;5090877;28;20044;-84
2022/10/03 12:53:05;;;;;;;0.00;0.00;;;19.20;99.90;;;;;;5090508;28;20052;-84
2022/10/03 12:55:37;;;;;;;0.00;0.00;;;19.30;99.90;;;;;;5074273;28;20099;-83
2022/10/03 12:58:02;;;;;;;0.10;0.10;;;19.40;99.90;;;;;;5074069;28;20048;-84
2022/10/03 13:00:39;;;;;;;0.00;0.00;;;19.40;99.90;;;;;;5090241;28;20059;-84
2022/10/03 13:03:11;;;;;;;0.00;0.00;;;19.40;99.90;;;;;;5090023;28;20044;-84
2022/10/03 13:05:56;;;;;;;0.00;0.00;;;19.20;99.90;;;;;;5087301;28;20076;-82
2022/10/03 13:08:28;;;;;;;0.22;0.13;;;18.90;99.90;;;;;;5089590;28;20059;-82
2022/10/03 13:11:00;;;;;;;0.00;0.00;;;18.80;99.90;;;;;;5090200;28;20052;-84
2022/10/03 13:14:06;;;;;;;0.00;0.00;;;18.70;99.90;;;;;;5090847;28;20052;-84
2022/10/03 13:16:42;;;;;;;0.10;0.00;;;18.70;99.90;;;;;;5034822;28;20091;-84
2022/10/03 13:19:14;;;;;;;1.35;1.00;;;18.70;99.90;;;;;;5036028;28;20155;-84
2022/10/03 13:22:02;;;;;;;0.00;0.00;;;18.70;99.90;;;;;;5052980;28;20486;-84
2022/10/03 13:24:33;;;;;;;0.00;0.00;;;18.70;99.90;;;;;;5052222;28;20520;-84
2022/10/03 13:27:17;;;;;;;0.00;0.00;;;18.70;99.90;;;;;;5035478;28;20053;-83
2022/10/03 13:30:12;;;;;;;0.00;0.00;;;18.50;99.90;;;;;;5032297;28;20100;-83
2022/10/03 13:32:46;;;;;;;0.00;0.00;;;18.40;99.90;;;;;;4953950;28;20074;-83
2022/10/03 13:38:15;;;;;;;0.00;0.00;;;18.20;99.90;;;;;;4954681;28;20466;-83
2022/10/03 13:40:56;;;;;;;0.00;0.00;;;18.20;99.90;;;;;;4938332;28;20055;-83
2022/10/03 13:43:36;;;;;;;0.00;0.00;;;18.20;99.90;;;;;;4953514;28;20511;-82
2022/10/03 13:46:13;;;;;;;0.00;0.00;;;18.30;99.90;;;;;;4954256;28;20071;-83
2022/10/03 13:48:40;;;;;;;0.00;0.00;;;18.30;99.90;;;;;;4954457;28;20411;-83
2022/10/03 13:51:20;;;;;;;0.52;0.43;;;18.40;99.90;;;;;;4940772;28;20198;-83
2022/10/03 13:53:58;;;;;;;0.00;0.00;;;18.40;99.90;;;;;;4970898;28;20058;-83
2022/10/03 13:57:02;;;;;;;0.00;0.00;;;18.40;99.90;;;;;;4945020;28;20070;-83
2022/10/03 13:59:28;;;;;;;0.00;0.00;;;18.40;99.90;;;;;;4919210;29;20054;-83
2022/10/03 14:02:15;;;;;;;0.00;0.00;;;18.40;99.90;;;;;;4919343;29;20052;-86
2022/10/03 14:04:59;;;;;;;0.00;0.00;;;18.40;99.90;;;;;;4917567;29;20139;-86
2022/10/03 14:08:01;;;;;;;0.00;0.00;;;18.40;99.90;;;;;;4902433;29;20067;-86
2022/10/03 14:10:42;;;;;;;0.00;0.00;;;18.40;99.90;;;;;;4971863;28;20454;-86
2022/10/03 14:13:16;;;;;;;0.00;0.00;;;18.40;99.90;;;;;;4943633;28;20058;-85
2022/10/03 14:15:44;;;;;;;0.00;0.00;;;18.30;99.90;;;;;;4960228;28;20082;-83
2022/10/03 14:18:32;;;;;;;0.00;0.00;;;18.30;99.90;;;;;;4944645;28;20051;-83
2022/10/03 14:21:34;;;;;;;0.00;0.00;;;18.20;99.90;;;;;;4960438;28;20051;-83
2022/10/03 14:24:15;;;;;;;1.88;0.43;;;18.10;99.90;;;;;;4994789;28;20104;-84
2022/10/03 14:26:56;;;;;;;0.63;0.38;;;18.00;99.90;;;;;;4979590;28;20062;-84
2022/10/03 14:29:49;;;;;;;0.00;0.00;;;17.90;99.90;;;;;;4978881;28;20486;-83
2022/10/03 14:32:48;;;;;;;0.03;0.00;;;17.90;99.90;;;;;;4979301;28;20042;-85
2022/10/03 14:35:25;;;;;;;0.00;0.00;;;17.90;99.90;;;;;;5089388;28;20396;-83
2022/10/03 14:38:14;;;;;;;0.00;0.00;;;17.80;99.90;;;;;;5089507;28;20040;-83
2022/10/03 14:40:49;;;;;;;0.00;0.00;;;17.80;99.90;;;;;;5038754;28;20095;-83
2022/10/03 14:43:42;;;;;;;0.35;0.35;;;17.70;99.90;;;;;;5038394;28;20065;-83
2022/10/03 14:46:09;;;;;;;17.63;1.08;;;17.70;99.90;;;;;;5039089;28;20149;-83
2022/10/03 14:48:35;;;;;;;0.20;0.20;;;17.60;99.90;;;;;;5071637;28;20615;-83
2022/10/03 14:51:15;;;;;;;0.00;0.00;;;17.60;99.90;;;;;;5088932;28;20094;-82
2022/10/03 14:53:50;;;;;;;0.00;0.00;;;17.60;99.90;;;;;;5089210;28;20094;-83
2022/10/03 14:56:18;;;;;;;0.00;0.00;;;17.50;99.90;;;;;;5054582;28;20052;-83
2022/10/03 14:58:50;;;;;;;0.00;0.00;;;17.50;99.90;;;;;;5055281;28;20090;-83
2022/10/03 15:01:20;;;;;;;0.00;0.00;;;17.60;99.90;;;;;;5039561;28;20045;-83
2022/10/03 15:04:05;;;;;;;0.00;0.00;;;17.60;99.90;;;;;;5055382;28;20040;-83
2022/10/03 15:06:44;;;;;;;0.00;0.00;;;17.60;99.90;;;;;;5054014;28;20060;-83
2022/10/03 15:09:19;;;;;;;0.00;0.00;;;17.60;99.90;;;;;;5055059;28;20112;-83
2022/10/03 15:11:49;;;;;;;0.00;0.00;;;17.50;99.90;;;;;;5054899;28;20488;-83